createdAt,value
2023-03-06T00:00:56.818Z,8.33
2023-03-06T00:03:26.232Z,7.70
2023-03-06T00:05:58.766Z,8.00
2023-03-06T00:08:28.622Z,7.43
2023-03-06T00:10:56.826Z,6.63
2023-03-06T00:13:26.824Z,8.03
2023-03-06T00:15:54.320Z,6.63
2023-03-06T00:18:21.624Z,7.30
2023-03-06T00:20:48.882Z,6.93
2023-03-06T00:23:16.109Z,5.87
2023-03-06T00:25:45.298Z,7.20
2023-03-06T00:28:14.893Z,6.97
2023-03-06T00:30:42.493Z,6.13
2023-03-06T00:33:10.009Z,7.37
2023-03-06T00:35:40.157Z,7.00
2023-03-06T00:38:08.562Z,7.63
2023-03-06T00:40:35.819Z,7.33
2023-03-06T00:43:03.113Z,8.40
2023-03-06T00:45:30.444Z,7.73
2023-03-06T00:47:57.688Z,8.33
2023-03-06T00:50:24.968Z,8.10
2023-03-06T00:52:52.655Z,7.83
2023-03-06T00:55:20.046Z,8.90
2023-03-06T00:57:47.359Z,9.07
2023-03-06T01:00:15.378Z,8.40
2023-03-06T01:02:42.673Z,8.87
2023-03-06T01:05:12.892Z,10.00
2023-03-06T01:07:40.199Z,9.95
2023-03-06T01:10:09.311Z,9.00
2023-03-06T01:12:36.607Z,8.87
2023-03-06T01:15:05.846Z,9.17
2023-03-06T01:17:33.036Z,9.27
2023-03-06T01:20:01.468Z,9.07
2023-03-06T01:22:28.726Z,7.77
2023-03-06T01:24:55.846Z,8.83
2023-03-06T01:27:23.269Z,8.23
2023-03-06T01:29:50.529Z,6.87
2023-03-06T01:32:17.793Z,5.90
2023-03-06T01:34:45.104Z,4.60
2023-03-06T01:37:12.427Z,4.23
2023-03-06T01:39:39.618Z,3.60
2023-03-06T01:42:07.429Z,3.17
2023-03-06T01:44:35.018Z,3.60
2023-03-06T01:47:05.218Z,3.60
2023-03-06T01:49:37.126Z,3.05
2023-03-06T01:52:15.782Z,3.00
2023-03-06T01:54:53.436Z,3.00
2023-03-06T01:57:57.694Z,3.13
2023-03-06T02:00:28.282Z,3.60
2023-03-06T02:03:10.098Z,3.00
2023-03-06T02:05:39.867Z,3.37
2023-03-06T02:08:11.891Z,3.80
2023-03-06T02:11:13.151Z,3.10
2023-03-06T02:13:43.017Z,3.63
2023-03-06T02:16:11.210Z,4.03
2023-03-06T02:18:41.006Z,3.53
2023-03-06T02:21:13.325Z,4.00
2023-03-06T02:24:33.151Z,4.13
2023-03-06T02:27:03.139Z,2.50
2023-03-06T02:29:31.902Z,2.53
2023-03-06T02:32:02.650Z,2.20
2023-03-06T02:34:29.754Z,2.50
2023-03-06T02:37:09.146Z,3.03
2023-03-06T02:39:43.302Z,2.20
2023-03-06T02:42:19.788Z,2.30
2023-03-06T02:44:48.696Z,1.70
2023-03-06T02:47:16.085Z,1.90
2023-03-06T02:49:43.227Z,1.67
2023-03-06T02:52:10.642Z,1.97
2023-03-06T02:54:39.784Z,2.47
2023-03-06T02:57:07.736Z,2.37
2023-03-06T02:59:35.382Z,1.90
2023-03-06T03:02:04.697Z,2.23
2023-03-06T03:04:34.880Z,2.17
2023-03-06T03:07:03.219Z,2.33
2023-03-06T03:09:36.925Z,2.10
2023-03-06T03:12:08.450Z,2.07
2023-03-06T03:14:36.215Z,1.80
2023-03-06T03:17:04.438Z,1.90
2023-03-06T03:19:31.620Z,2.00
2023-03-06T03:21:59.064Z,2.20
2023-03-06T03:24:26.860Z,2.20
2023-03-06T03:26:55.159Z,2.50
2023-03-06T03:29:24.174Z,2.23
2023-03-06T03:31:51.579Z,2.07
2023-03-06T03:34:19.086Z,2.57
2023-03-06T03:36:47.589Z,2.57
2023-03-06T03:39:15.878Z,2.27
2023-03-06T03:41:43.834Z,3.30
2023-03-06T03:44:12.405Z,2.43
2023-03-06T03:46:39.900Z,2.00
2023-03-06T03:49:11.913Z,3.03
2023-03-06T03:51:39.141Z,3.03
2023-03-06T03:54:06.916Z,3.17
2023-03-06T03:56:40.762Z,5.37
2023-03-06T03:59:14.019Z,6.63
2023-03-06T04:01:49.667Z,17.17
2023-03-06T04:04:17.346Z,30.77
2023-03-06T04:06:45.687Z,23.67
2023-03-06T04:09:14.143Z,21.23
2023-03-06T04:11:42.091Z,43.43
2023-03-06T04:14:09.847Z,38.43
2023-03-06T04:16:37.442Z,5.70
2023-03-06T04:19:04.769Z,3.33
2023-03-06T04:21:32.239Z,3.60
2023-03-06T04:23:59.902Z,4.20
2023-03-06T04:26:27.218Z,3.60
2023-03-06T04:28:56.156Z,3.73
2023-03-06T04:31:23.599Z,4.20
2023-03-06T04:33:50.830Z,3.50
2023-03-06T04:36:30.889Z,2.87
2023-03-06T04:39:03.009Z,3.27
2023-03-06T04:41:31.961Z,2.60
2023-03-06T04:43:59.273Z,3.43
2023-03-06T04:46:26.476Z,3.77
2023-03-06T04:48:53.695Z,3.83
2023-03-06T04:51:21.011Z,3.30
2023-03-06T04:53:48.263Z,4.13
2023-03-06T04:56:15.608Z,3.43
2023-03-06T04:58:45.036Z,3.33
2023-03-06T05:01:12.830Z,3.23
2023-03-06T05:03:40.072Z,5.00
2023-03-06T05:06:07.746Z,4.53
2023-03-06T05:08:35.274Z,3.97
2023-03-06T05:11:02.664Z,4.20
2023-03-06T05:13:29.886Z,3.73
2023-03-06T05:16:06.069Z,3.80
2023-03-06T05:18:34.614Z,4.23
2023-03-06T05:21:02.661Z,4.00
2023-03-06T05:23:32.758Z,3.87
2023-03-06T05:25:59.963Z,4.15
2023-03-06T05:28:28.741Z,3.77
2023-03-06T05:30:56.171Z,4.00
2023-03-06T05:33:23.499Z,3.27
2023-03-06T05:35:50.775Z,5.03
2023-03-06T05:38:18.639Z,3.83
2023-03-06T05:40:46.100Z,4.17
2023-03-06T05:43:13.337Z,4.60
2023-03-06T05:45:41.374Z,3.65
2023-03-06T05:48:09.293Z,4.07
2023-03-06T05:50:36.573Z,4.27
2023-03-06T05:53:03.851Z,3.10
2023-03-06T05:55:31.779Z,4.27
2023-03-06T05:57:59.125Z,3.83
2023-03-06T06:00:26.531Z,4.17
2023-03-06T06:02:53.841Z,4.03
2023-03-06T06:05:21.101Z,4.10
2023-03-06T06:07:48.638Z,3.43
2023-03-06T06:10:15.956Z,3.30
2023-03-06T06:12:43.380Z,3.10
2023-03-06T06:15:11.303Z,3.13
2023-03-06T06:17:38.528Z,3.33
2023-03-06T06:20:06.436Z,3.10
2023-03-06T06:22:37.907Z,3.30
2023-03-06T06:25:06.776Z,3.07
2023-03-06T06:27:34.048Z,3.20
2023-03-06T06:30:01.300Z,3.33
2023-03-06T06:32:28.520Z,2.70
2023-03-06T06:34:55.770Z,3.47
2023-03-06T06:37:22.991Z,3.13
2023-03-06T06:39:50.750Z,3.65
2023-03-06T06:42:33.008Z,3.42
2023-03-06T06:45:05.250Z,3.50
2023-03-06T06:47:34.292Z,4.10
2023-03-06T06:50:01.743Z,3.22
2023-03-06T06:52:29.007Z,4.60
2023-03-06T06:54:56.518Z,4.15
2023-03-06T06:57:23.672Z,3.53
2023-03-06T06:59:53.865Z,3.35
2023-03-06T07:02:21.405Z,3.50
2023-03-06T07:05:02.576Z,3.03
2023-03-06T07:07:35.806Z,2.75
2023-03-06T07:10:08.163Z,2.83
2023-03-06T07:12:35.471Z,2.60
2023-03-06T07:15:05.033Z,3.45
2023-03-06T07:17:32.621Z,3.33
2023-03-06T07:20:00.122Z,2.92
2023-03-06T07:22:28.154Z,4.68
2023-03-06T07:24:56.395Z,3.80
2023-03-06T07:27:26.057Z,2.85
2023-03-06T07:29:53.373Z,2.65
2023-03-06T07:32:21.103Z,2.65
2023-03-06T07:34:48.452Z,3.00
2023-03-06T07:37:15.878Z,2.92
2023-03-06T07:39:43.388Z,2.78
2023-03-06T07:42:14.602Z,2.55
2023-03-06T07:44:50.838Z,3.10
2023-03-06T07:47:18.255Z,2.85
2023-03-06T07:49:45.423Z,3.17
2023-03-06T07:52:12.867Z,2.65
2023-03-06T07:54:40.130Z,2.85
2023-03-06T07:57:07.395Z,3.40
2023-03-06T07:59:34.628Z,2.50
2023-03-06T08:02:02.018Z,2.55
2023-03-06T08:04:30.264Z,2.70
2023-03-06T08:06:59.796Z,2.60
2023-03-06T08:09:27.449Z,2.58
2023-03-06T08:11:54.958Z,3.08
2023-03-06T08:14:22.387Z,2.72
2023-03-06T08:16:51.279Z,2.75
2023-03-06T08:19:18.595Z,2.95
2023-03-06T08:21:45.829Z,2.78
2023-03-06T08:24:16.599Z,2.50
2023-03-06T08:26:43.897Z,3.03
2023-03-06T08:29:11.732Z,2.92
2023-03-06T08:31:44.978Z,2.95
2023-03-06T08:34:16.466Z,3.08
2023-03-06T08:36:44.059Z,3.20
2023-03-06T08:39:11.639Z,2.83
2023-03-06T08:41:42.287Z,3.28
2023-03-06T08:44:10.403Z,3.00
2023-03-06T08:46:38.398Z,2.38
2023-03-06T08:49:05.628Z,2.85
2023-03-06T08:51:33.420Z,2.70
2023-03-06T08:54:00.955Z,3.33
2023-03-06T08:56:32.667Z,3.38
2023-03-06T08:59:03.757Z,3.00
2023-03-06T09:01:37.641Z,3.72
2023-03-06T09:04:11.511Z,3.00
2023-03-06T09:06:41.821Z,2.70
2023-03-06T09:09:09.566Z,2.90
2023-03-06T09:11:37.248Z,3.05
2023-03-06T09:14:05.670Z,2.90
2023-03-06T09:16:33.564Z,2.63
2023-03-06T09:19:00.957Z,1.98
2023-03-06T09:21:28.790Z,2.17
2023-03-06T09:23:56.974Z,2.28
2023-03-06T09:26:32.785Z,1.98
2023-03-06T09:29:07.812Z,2.50
2023-03-06T09:31:35.102Z,1.90
2023-03-06T09:34:02.448Z,2.33
2023-03-06T09:36:30.381Z,2.22
2023-03-06T09:38:57.666Z,2.15
2023-03-06T09:41:31.009Z,2.17
2023-03-06T09:44:06.121Z,2.35
2023-03-06T09:46:54.986Z,1.45
2023-03-06T09:50:06.140Z,2.50
2023-03-06T09:52:51.384Z,2.50
2023-03-06T09:55:24.405Z,2.47
2023-03-06T09:58:20.810Z,1.75
2023-03-06T10:01:24.752Z,1.90
2023-03-06T10:04:18.667Z,1.60
2023-03-06T10:06:59.725Z,2.08
2023-03-06T10:09:43.777Z,1.80
2023-03-06T10:12:43.245Z,1.60
2023-03-06T10:15:32.572Z,1.60
2023-03-06T10:18:00.108Z,1.25
2023-03-06T10:20:43.499Z,1.20
2023-03-06T10:23:35.357Z,1.40
2023-03-06T10:26:11.553Z,1.73
2023-03-06T10:28:45.724Z,2.00
2023-03-06T10:31:22.692Z,2.10
2023-03-06T10:33:52.603Z,2.35
2023-03-06T10:36:22.431Z,1.58
2023-03-06T10:38:49.674Z,1.73
2023-03-06T10:41:23.887Z,1.83
2023-03-06T10:44:00.282Z,1.50
2023-03-06T10:46:43.052Z,1.10
2023-03-06T10:49:34.581Z,1.10
2023-03-06T10:52:20.643Z,0.85
2023-03-06T10:54:48.608Z,1.20
2023-03-06T10:57:32.910Z,1.00
2023-03-06T11:00:05.721Z,1.30
2023-03-06T11:02:41.252Z,1.17
2023-03-06T11:05:20.284Z,1.10
2023-03-06T11:08:00.137Z,1.42
2023-03-06T11:10:31.292Z,1.50
2023-03-06T11:13:21.308Z,1.10
2023-03-06T11:16:17.919Z,1.23
2023-03-06T11:18:59.272Z,1.08
2023-03-06T11:21:37.712Z,1.25
2023-03-06T11:24:20.025Z,1.33
2023-03-06T11:27:03.116Z,1.75
2023-03-06T11:29:47.170Z,1.75
2023-03-06T11:32:33.301Z,3.00
2023-03-06T11:35:13.898Z,40.50
2023-03-06T11:37:57.462Z,8.90
2023-03-06T11:40:48.253Z,3.30
2023-03-06T11:46:29.163Z,12.50
2023-03-06T11:49:24.329Z,3.78
2023-03-06T11:52:06.508Z,28.33
2023-03-06T11:54:33.794Z,28.30
2023-03-06T11:57:12.585Z,2.05
2023-03-06T12:00:22.865Z,3.05
2023-03-06T12:03:09.529Z,9.15
2023-03-06T12:05:40.531Z,12.38
2023-03-06T12:08:53.983Z,5.43
2023-03-06T12:11:32.797Z,2.63
2023-03-06T12:14:20.330Z,3.47
2023-03-06T12:16:59.379Z,7.10
2023-03-06T12:20:12.703Z,1.80
2023-03-06T12:22:58.095Z,3.50
2023-03-06T12:26:00.785Z,2.87
2023-03-06T12:28:27.894Z,4.45
2023-03-06T12:31:25.838Z,1.45
2023-03-06T12:34:11.140Z,1.73
2023-03-06T12:37:12.152Z,2.47
2023-03-06T12:40:00.513Z,1.33
2023-03-06T12:43:05.521Z,1.58
2023-03-06T12:45:37.322Z,1.83
2023-03-06T12:48:16.419Z,1.30
2023-03-06T12:50:44.709Z,3.10
2023-03-06T12:53:30.780Z,1.30
2023-03-06T12:56:00.777Z,3.50
2023-03-06T12:58:30.708Z,2.90
2023-03-06T13:01:37.851Z,3.55
2023-03-06T13:05:00.587Z,2.00
2023-03-06T13:08:04.664Z,1.85
2023-03-06T13:10:35.159Z,1.08
2023-03-06T13:13:26.138Z,1.75
2023-03-06T13:19:12.218Z,1.55
2023-03-06T13:21:42.604Z,0.98
2023-03-06T13:24:25.900Z,2.80
2023-03-06T13:26:58.059Z,5.88
2023-03-06T13:29:37.723Z,3.30
2023-03-06T13:32:14.850Z,2.80
2023-03-06T13:34:51.700Z,11.15
2023-03-06T13:37:20.020Z,3.70
2023-03-06T13:39:55.848Z,6.60
2023-03-06T13:42:37.304Z,2.85
2023-03-06T13:45:34.529Z,1.92
2023-03-06T13:48:24.916Z,1.98
2023-03-06T13:50:51.234Z,1.98
2023-03-06T13:54:21.040Z,5.70
2023-03-06T13:57:09.161Z,2.00
2023-03-06T13:59:57.037Z,1.42
2023-03-06T14:03:01.654Z,1.80
2023-03-06T14:05:45.564Z,2.40
2023-03-06T14:08:31.413Z,2.00
2023-03-06T14:11:21.180Z,2.38
2023-03-06T14:13:56.056Z,2.30
2023-03-06T14:16:29.100Z,2.50
2023-03-06T14:18:59.328Z,2.38
2023-03-06T14:21:47.355Z,2.40
2023-03-06T14:24:20.673Z,2.85
2023-03-06T14:26:51.733Z,2.35
2023-03-06T14:29:25.728Z,2.88
2023-03-06T14:31:56.680Z,2.65
2023-03-06T14:34:31.189Z,3.28
2023-03-06T14:37:08.180Z,3.30
2023-03-06T14:39:41.886Z,2.88
2023-03-06T14:42:16.320Z,2.78
2023-03-06T14:44:43.799Z,3.25
2023-03-06T14:47:28.854Z,3.15
2023-03-06T14:50:24.392Z,3.25
2023-03-06T14:53:14.012Z,4.45
2023-03-06T14:55:50.804Z,4.25
2023-03-06T14:58:30.856Z,4.18
2023-03-06T15:01:04.733Z,3.38
2023-03-06T15:03:55.235Z,4.45
2023-03-06T15:06:40.539Z,5.40
2023-03-06T15:09:25.307Z,4.38
2023-03-06T15:12:08.036Z,4.07
2023-03-06T15:14:42.230Z,4.07
2023-03-06T15:17:28.325Z,3.97
2023-03-06T15:20:01.099Z,4.15
2023-03-06T15:22:43.622Z,4.10
2023-03-06T15:25:46.744Z,4.38
2023-03-06T15:28:39.573Z,3.92
2023-03-06T15:31:31.660Z,4.70
2023-03-06T15:34:09.224Z,4.70
2023-03-06T15:36:44.516Z,4.57
2023-03-06T15:39:34.129Z,4.82
2023-03-06T15:42:25.053Z,4.80
2023-03-06T15:47:25.404Z,4.38
2023-03-06T15:49:53.393Z,4.80
2023-03-06T15:52:23.853Z,4.30
2023-03-06T15:54:51.307Z,4.75
2023-03-06T15:57:29.468Z,6.25
2023-03-06T15:59:58.086Z,4.55
2023-03-06T16:02:25.422Z,4.57
2023-03-06T16:04:52.809Z,5.63
2023-03-06T16:07:20.802Z,4.80
2023-03-06T16:09:48.209Z,6.63
2023-03-06T16:12:22.880Z,5.45
2023-03-06T16:14:50.218Z,5.32
2023-03-06T16:17:18.208Z,5.20
2023-03-06T16:19:45.677Z,5.70
2023-03-06T16:22:13.084Z,6.15
2023-03-06T16:24:40.713Z,15.43
2023-03-06T16:27:15.427Z,33.40
2023-03-06T16:29:42.775Z,5.97
2023-03-06T16:32:11.323Z,6.22
2023-03-06T16:34:38.600Z,5.95
2023-03-06T16:37:12.797Z,5.25
2023-03-06T16:39:40.057Z,4.95
2023-03-06T16:42:07.653Z,4.72
2023-03-06T16:44:34.882Z,5.03
2023-03-06T16:47:02.161Z,5.13
2023-03-06T16:49:29.537Z,5.05
2023-03-06T16:51:56.892Z,5.43
2023-03-06T16:54:26.324Z,6.32
2023-03-06T16:56:53.568Z,6.20
2023-03-06T16:59:20.847Z,6.15
2023-03-06T17:01:48.130Z,6.38
2023-03-06T17:04:15.547Z,5.38
2023-03-06T17:06:43.322Z,5.90
2023-03-06T17:09:11.110Z,5.32
2023-03-06T17:11:43.477Z,5.22
2023-03-06T17:14:10.785Z,5.43
2023-03-06T17:16:40.501Z,5.45
2023-03-06T17:19:08.719Z,6.23
2023-03-06T17:21:38.594Z,5.82
2023-03-06T17:24:06.565Z,5.15
2023-03-06T17:26:33.994Z,5.30
2023-03-06T17:29:01.488Z,5.78
2023-03-06T17:31:29.285Z,4.82
2023-03-06T17:33:59.292Z,5.50
2023-03-06T17:36:31.381Z,5.72
2023-03-06T17:39:00.753Z,5.35
2023-03-06T17:41:28.640Z,5.30
2023-03-06T17:43:57.833Z,5.22
2023-03-06T17:46:25.833Z,4.72
2023-03-06T17:48:53.223Z,4.95
2023-03-06T17:51:20.705Z,5.50
2023-03-06T17:53:47.976Z,5.57
2023-03-06T17:56:15.914Z,6.35
2023-03-06T17:58:43.691Z,5.88
2023-03-06T18:01:19.087Z,5.63
2023-03-06T18:03:49.425Z,6.05
2023-03-06T18:06:18.678Z,5.65
2023-03-06T18:08:46.606Z,5.30
2023-03-06T18:11:15.571Z,5.70
2023-03-06T18:13:44.549Z,4.93
2023-03-06T18:16:14.625Z,5.88
2023-03-06T18:18:42.149Z,6.32
2023-03-06T18:21:16.861Z,6.55
2023-03-06T18:23:44.481Z,7.47
2023-03-06T18:26:25.378Z,7.13
2023-03-06T18:28:56.497Z,6.38
2023-03-06T18:31:31.800Z,5.35
2023-03-06T18:34:09.328Z,5.63
2023-03-06T18:36:37.546Z,5.10
2023-03-06T18:39:08.953Z,5.45
2023-03-06T18:41:36.732Z,5.68
2023-03-06T18:44:05.208Z,4.82
2023-03-06T18:46:38.447Z,5.25
2023-03-06T18:49:06.717Z,6.28
2023-03-06T18:51:34.576Z,5.20
2023-03-06T18:54:04.140Z,5.53
2023-03-06T18:56:31.904Z,5.35
2023-03-06T18:59:07.194Z,5.20
2023-03-06T19:01:35.085Z,5.00
2023-03-06T19:04:04.703Z,7.90
2023-03-06T19:06:32.497Z,6.43
2023-03-06T19:09:01.782Z,5.28
2023-03-06T19:11:32.101Z,6.28
2023-03-06T19:13:59.611Z,5.10
2023-03-06T19:16:30.253Z,5.57
2023-03-06T19:21:27.683Z,5.45
2023-03-06T19:23:56.391Z,5.57
2023-03-06T19:26:23.960Z,5.60
2023-03-06T19:28:52.596Z,4.90
2023-03-06T19:31:26.784Z,5.78
2023-03-06T19:34:19.299Z,5.53
2023-03-06T19:36:46.685Z,5.68
2023-03-06T19:40:29.747Z,5.47
2023-03-06T19:43:24.112Z,5.03
2023-03-06T19:45:51.609Z,5.05
2023-03-06T19:48:20.160Z,5.82
2023-03-06T19:51:16.195Z,5.63
2023-03-06T19:53:43.640Z,4.97
2023-03-06T19:56:26.147Z,4.90
2023-03-06T19:58:53.882Z,5.22
2023-03-06T20:01:25.027Z,5.30
2023-03-06T20:03:59.922Z,6.00
2023-03-06T20:06:31.671Z,5.43
2023-03-06T20:08:59.326Z,5.70
2023-03-06T20:11:31.991Z,4.97
2023-03-06T20:14:03.051Z,5.32
2023-03-06T20:16:31.710Z,5.32
2023-03-06T20:19:01.110Z,5.35
2023-03-06T20:21:31.507Z,5.93
2023-03-06T20:24:26.130Z,5.55
2023-03-06T20:26:57.566Z,5.32
2023-03-06T20:29:28.365Z,5.72
2023-03-06T20:31:57.802Z,5.88
2023-03-06T20:34:26.819Z,6.03
2023-03-06T20:36:54.485Z,5.43
2023-03-06T20:39:22.620Z,5.65
2023-03-06T20:41:50.373Z,6.78
2023-03-06T20:44:19.959Z,5.38
2023-03-06T20:46:48.341Z,5.97
2023-03-06T20:49:15.690Z,6.63
2023-03-06T20:51:43.186Z,5.22
2023-03-06T20:54:14.363Z,5.78
2023-03-06T20:56:47.352Z,5.65
2023-03-06T21:02:06.795Z,5.85
2023-03-06T21:04:34.540Z,6.00
2023-03-06T21:07:01.884Z,6.07
2023-03-06T21:09:29.157Z,5.85
2023-03-06T21:12:21.297Z,6.38
2023-03-06T21:14:48.732Z,6.47
2023-03-06T21:17:16.053Z,6.43
2023-03-06T21:19:43.440Z,6.10
2023-03-06T21:22:10.826Z,6.25
2023-03-06T21:24:38.252Z,5.93
2023-03-06T21:27:05.728Z,6.20
2023-03-06T21:29:32.947Z,6.18
2023-03-06T21:32:00.327Z,6.18
2023-03-06T21:34:27.544Z,6.40
2023-03-06T21:36:54.815Z,5.95
2023-03-06T21:39:22.027Z,6.68
2023-03-06T21:41:49.414Z,5.68
2023-03-06T21:44:16.711Z,6.05
2023-03-06T21:46:44.058Z,6.32
2023-03-06T21:49:11.220Z,6.35
2023-03-06T21:51:38.403Z,6.40
2023-03-06T21:54:06.699Z,5.90
2023-03-06T21:56:33.926Z,6.63
2023-03-06T21:59:01.499Z,5.28
2023-03-06T22:01:30.019Z,6.22
2023-03-06T22:03:58.886Z,6.40
2023-03-06T22:06:28.634Z,7.00
2023-03-06T22:08:57.883Z,5.85
2023-03-06T22:11:28.388Z,6.68
2023-03-06T22:13:55.713Z,5.88
2023-03-06T22:16:22.991Z,5.72
2023-03-06T22:18:52.114Z,5.80
2023-03-06T22:21:21.736Z,6.35
2023-03-06T22:23:53.441Z,5.70
2023-03-06T22:26:21.441Z,5.55
2023-03-06T22:28:48.871Z,6.13
2023-03-06T22:31:25.821Z,6.47
2023-03-06T22:33:55.649Z,6.07
2023-03-06T22:36:24.255Z,6.20
2023-03-06T22:38:56.438Z,6.05
2023-03-06T22:41:26.877Z,6.20
2023-03-06T22:43:59.879Z,6.43
2023-03-06T22:46:27.916Z,6.55
2023-03-06T22:49:02.393Z,6.85
2023-03-06T22:51:29.889Z,6.55
2023-03-06T22:53:57.108Z,6.32
2023-03-06T22:56:24.860Z,6.78
2023-03-06T22:58:52.262Z,6.40
2023-03-06T23:01:23.134Z,4.80
2023-03-06T23:03:53.809Z,6.10
2023-03-06T23:06:34.242Z,5.22
2023-03-06T23:09:23.650Z,6.07
2023-03-06T23:12:11.648Z,5.65
2023-03-06T23:14:57.818Z,5.25
2023-03-06T23:17:43.809Z,4.88
2023-03-06T23:20:30.056Z,5.32
2023-03-06T23:23:16.194Z,5.00
2023-03-06T23:25:44.549Z,6.97
2023-03-06T23:28:12.070Z,5.35
2023-03-06T23:30:40.211Z,6.82
2023-03-06T23:33:08.470Z,4.82
2023-03-06T23:35:39.006Z,5.68
2023-03-06T23:38:06.615Z,5.35
2023-03-06T23:40:34.833Z,5.00
2023-03-06T23:43:03.584Z,5.75
2023-03-06T23:45:31.475Z,5.65
2023-03-06T23:47:59.153Z,6.18
2023-03-06T23:50:26.742Z,5.38
2023-03-06T23:52:55.078Z,5.75
2023-03-06T23:55:22.479Z,5.40
2023-03-06T23:57:49.686Z,5.38
